sensor_id;sensor_type;location;lat;lon;timestamp;temperature;humidity
44695;DHT22;32845;59.422;17.930;2022-09-09T00:02:44;10.20;99.90
44695;DHT22;32845;59.422;17.930;2022-09-09T00:12:40;10.10;99.90
44695;DHT22;32845;59.422;17.930;2022-09-09T00:17:34;10.00;99.90
44695;DHT22;32845;59.422;17.930;2022-09-09T00:26:55;10.00;99.90
44695;DHT22;32845;59.422;17.930;2022-09-09T00:31:31;10.00;99.90
44695;DHT22;32845;59.422;17.930;2022-09-09T00:36:02;10.00;99.90
44695;DHT22;32845;59.422;17.930;2022-09-09T00:40:37;10.10;99.90
44695;DHT22;32845;59.422;17.930;2022-09-09T00:45:19;10.10;99.90
44695;DHT22;32845;59.422;17.930;2022-09-09T01:04:51;10.30;99.90
44695;DHT22;32845;59.422;17.930;2022-09-09T01:19:10;10.50;99.90
44695;DHT22;32845;59.422;17.930;2022-09-09T01:28:52;10.50;99.90
44695;DHT22;32845;59.422;17.930;2022-09-09T01:33:23;10.60;99.90
44695;DHT22;32845;59.422;17.930;2022-09-09T01:37:54;10.60;99.90
44695;DHT22;32845;59.422;17.930;2022-09-09T01:42:24;10.70;99.90
44695;DHT22;32845;59.422;17.930;2022-09-09T01:46:55;10.70;99.90
44695;DHT22;32845;59.422;17.930;2022-09-09T01:51:31;10.80;99.90
44695;DHT22;32845;59.422;17.930;2022-09-09T02:10:19;10.80;99.90
44695;DHT22;32845;59.422;17.930;2022-09-09T02:14:59;10.80;99.90
44695;DHT22;32845;59.422;17.930;2022-09-09T02:19:37;10.80;99.90
44695;DHT22;32845;59.422;17.930;2022-09-09T02:24:11;10.80;99.90
44695;DHT22;32845;59.422;17.930;2022-09-09T02:28:44;10.90;99.90
44695;DHT22;32845;59.422;17.930;2022-09-09T02:33:16;10.90;99.90
44695;DHT22;32845;59.422;17.930;2022-09-09T02:37:47;10.90;99.90
44695;DHT22;32845;59.422;17.930;2022-09-09T02:42:23;10.90;99.90
44695;DHT22;32845;59.422;17.930;2022-09-09T02:51:53;10.90;99.90
44695;DHT22;32845;59.422;17.930;2022-09-09T02:56:30;10.90;99.90
44695;DHT22;32845;59.422;17.930;2022-09-09T03:01:03;11.00;99.90
44695;DHT22;32845;59.422;17.930;2022-09-09T03:05:34;11.00;99.90
44695;DHT22;32845;59.422;17.930;2022-09-09T03:10:06;11.10;99.90
44695;DHT22;32845;59.422;17.930;2022-09-09T03:14:42;11.10;99.90
44695;DHT22;32845;59.422;17.930;2022-09-09T03:19:14;11.10;99.90
44695;DHT22;32845;59.422;17.930;2022-09-09T03:23:50;11.10;99.90
44695;DHT22;32845;59.422;17.930;2022-09-09T03:28:21;11.10;99.90
44695;DHT22;32845;59.422;17.930;2022-09-09T03:32:52;11.20;99.90
44695;DHT22;32845;59.422;17.930;2022-09-09T03:37:22;11.20;99.90
44695;DHT22;32845;59.422;17.930;2022-09-09T03:41:53;11.20;99.90
44695;DHT22;32845;59.422;17.930;2022-09-09T03:46:25;11.30;99.90
44695;DHT22;32845;59.422;17.930;2022-09-09T03:50:56;11.30;99.90
44695;DHT22;32845;59.422;17.930;2022-09-09T03:55:30;11.30;99.90
44695;DHT22;32845;59.422;17.930;2022-09-09T04:00:05;11.30;99.90
44695;DHT22;32845;59.422;17.930;2022-09-09T04:04:37;11.30;99.90
44695;DHT22;32845;59.422;17.930;2022-09-09T04:09:08;11.30;99.90
44695;DHT22;32845;59.422;17.930;2022-09-09T04:13:38;11.40;99.90
44695;DHT22;32845;59.422;17.930;2022-09-09T04:18:09;11.40;99.90
44695;DHT22;32845;59.422;17.930;2022-09-09T04:22:45;11.40;99.90
44695;DHT22;32845;59.422;17.930;2022-09-09T04:27:16;11.40;99.90
44695;DHT22;32845;59.422;17.930;2022-09-09T04:31:46;11.50;99.90
44695;DHT22;32845;59.422;17.930;2022-09-09T04:36:17;11.50;99.90
44695;DHT22;32845;59.422;17.930;2022-09-09T04:40:56;11.50;99.90
44695;DHT22;32845;59.422;17.930;2022-09-09T04:45:27;11.60;99.90
44695;DHT22;32845;59.422;17.930;2022-09-09T04:49:58;11.70;99.90
44695;DHT22;32845;59.422;17.930;2022-09-09T04:54:43;11.70;99.90
44695;DHT22;32845;59.422;17.930;2022-09-09T04:59:16;11.80;99.90
44695;DHT22;32845;59.422;17.930;2022-09-09T05:03:47;11.90;99.90
44695;DHT22;32845;59.422;17.930;2022-09-09T05:08:18;11.90;99.90
44695;DHT22;32845;59.422;17.930;2022-09-09T05:12:52;12.00;99.90
44695;DHT22;32845;59.422;17.930;2022-09-09T05:17:24;12.00;99.90
44695;DHT22;32845;59.422;17.930;2022-09-09T05:21:54;12.00;99.90
44695;DHT22;32845;59.422;17.930;2022-09-09T05:26:25;12.00;99.90
44695;DHT22;32845;59.422;17.930;2022-09-09T05:31:06;12.10;99.90
44695;DHT22;32845;59.422;17.930;2022-09-09T05:35:41;12.10;99.90
44695;DHT22;32845;59.422;17.930;2022-09-09T05:40:12;12.20;99.90
44695;DHT22;32845;59.422;17.930;2022-09-09T05:44:48;12.20;99.90
44695;DHT22;32845;59.422;17.930;2022-09-09T05:49:18;12.20;99.90
44695;DHT22;32845;59.422;17.930;2022-09-09T05:53:50;12.30;99.90
44695;DHT22;32845;59.422;17.930;2022-09-09T05:58:25;12.40;99.90
44695;DHT22;32845;59.422;17.930;2022-09-09T06:02:56;12.40;99.90
44695;DHT22;32845;59.422;17.930;2022-09-09T06:07:27;12.50;99.90
44695;DHT22;32845;59.422;17.930;2022-09-09T06:11:58;12.50;99.90
44695;DHT22;32845;59.422;17.930;2022-09-09T06:16:29;12.60;99.90
44695;DHT22;32845;59.422;17.930;2022-09-09T06:21:02;12.60;99.90
44695;DHT22;32845;59.422;17.930;2022-09-09T06:25:37;12.70;99.90
44695;DHT22;32845;59.422;17.930;2022-09-09T06:30:10;12.80;99.90
44695;DHT22;32845;59.422;17.930;2022-09-09T06:34:41;12.90;99.90
44695;DHT22;32845;59.422;17.930;2022-09-09T06:39:12;13.10;99.90
44695;DHT22;32845;59.422;17.930;2022-09-09T06:43:45;13.20;99.90
44695;DHT22;32845;59.422;17.930;2022-09-09T06:48:16;13.30;99.90
44695;DHT22;32845;59.422;17.930;2022-09-09T06:52:46;13.50;99.90
44695;DHT22;32845;59.422;17.930;2022-09-09T06:57:18;13.60;99.90
44695;DHT22;32845;59.422;17.930;2022-09-09T07:01:48;13.60;99.90
44695;DHT22;32845;59.422;17.930;2022-09-09T07:06:24;13.60;99.90
44695;DHT22;32845;59.422;17.930;2022-09-09T07:11:02;13.80;99.90
44695;DHT22;32845;59.422;17.930;2022-09-09T07:15:35;13.80;99.90
44695;DHT22;32845;59.422;17.930;2022-09-09T07:20:05;13.90;99.90
44695;DHT22;32845;59.422;17.930;2022-09-09T07:24:37;14.00;99.90
44695;DHT22;32845;59.422;17.930;2022-09-09T07:29:08;14.00;99.90
44695;DHT22;32845;59.422;17.930;2022-09-09T07:33:45;14.10;99.90
44695;DHT22;32845;59.422;17.930;2022-09-09T07:38:15;14.20;99.90
44695;DHT22;32845;59.422;17.930;2022-09-09T07:42:47;14.20;99.90
44695;DHT22;32845;59.422;17.930;2022-09-09T07:47:17;14.20;99.90
44695;DHT22;32845;59.422;17.930;2022-09-09T07:51:48;14.30;99.90
44695;DHT22;32845;59.422;17.930;2022-09-09T07:56:20;14.30;99.90
44695;DHT22;32845;59.422;17.930;2022-09-09T08:00:53;14.40;99.90
44695;DHT22;32845;59.422;17.930;2022-09-09T08:05:24;14.40;99.90
44695;DHT22;32845;59.422;17.930;2022-09-09T08:09:55;14.40;99.90
44695;DHT22;32845;59.422;17.930;2022-09-09T08:14:26;14.50;99.90
44695;DHT22;32845;59.422;17.930;2022-09-09T08:18:57;14.60;99.90
44695;DHT22;32845;59.422;17.930;2022-09-09T08:23:28;14.60;99.90
44695;DHT22;32845;59.422;17.930;2022-09-09T08:27:58;14.60;99.90
44695;DHT22;32845;59.422;17.930;2022-09-09T08:32:29;14.70;99.90
44695;DHT22;32845;59.422;17.930;2022-09-09T08:37:00;14.60;99.90
44695;DHT22;32845;59.422;17.930;2022-09-09T08:51:19;14.80;99.90
44695;DHT22;32845;59.422;17.930;2022-09-09T08:55:54;14.80;99.90
44695;DHT22;32845;59.422;17.930;2022-09-09T09:05:26;15.10;99.90
44695;DHT22;32845;59.422;17.930;2022-09-09T09:14:50;15.10;99.90
44695;DHT22;32845;59.422;17.930;2022-09-09T09:19:21;15.10;99.90
44695;DHT22;32845;59.422;17.930;2022-09-09T09:24:07;15.10;99.90
44695;DHT22;32845;59.422;17.930;2022-09-09T09:28:42;15.20;99.90
44695;DHT22;32845;59.422;17.930;2022-09-09T09:33:23;15.20;99.90
44695;DHT22;32845;59.422;17.930;2022-09-09T09:37:55;15.20;99.90
44695;DHT22;32845;59.422;17.930;2022-09-09T09:42:26;15.30;99.90
44695;DHT22;32845;59.422;17.930;2022-09-09T09:47:21;15.40;99.90
44695;DHT22;32845;59.422;17.930;2022-09-09T09:51:51;15.50;99.90
44695;DHT22;32845;59.422;17.930;2022-09-09T09:56:27;15.80;99.90
44695;DHT22;32845;59.422;17.930;2022-09-09T10:01:02;16.00;99.90
44695;DHT22;32845;59.422;17.930;2022-09-09T10:05:36;16.20;99.90
44695;DHT22;32845;59.422;17.930;2022-09-09T10:10:11;16.30;99.60
44695;DHT22;32845;59.422;17.930;2022-09-09T10:19:35;16.60;99.50
44695;DHT22;32845;59.422;17.930;2022-09-09T10:28:51;17.00;99.00
44695;DHT22;32845;59.422;17.930;2022-09-09T10:33:48;17.10;99.10
44695;DHT22;32845;59.422;17.930;2022-09-09T10:57:56;18.30;93.00
44695;DHT22;32845;59.422;17.930;2022-09-09T11:02:29;18.50;93.50
44695;DHT22;32845;59.422;17.930;2022-09-09T11:07:07;19.00;91.50
44695;DHT22;32845;59.422;17.930;2022-09-09T11:11:53;19.60;95.10
44695;DHT22;32845;59.422;17.930;2022-09-09T11:21:33;21.20;90.00
44695;DHT22;32845;59.422;17.930;2022-09-09T11:26:06;21.20;90.10
44695;DHT22;32845;59.422;17.930;2022-09-09T11:35:55;21.10;89.00
44695;DHT22;32845;59.422;17.930;2022-09-09T11:40:32;21.70;85.00
44695;DHT22;32845;59.422;17.930;2022-09-09T11:45:11;21.90;90.10
44695;DHT22;32845;59.422;17.930;2022-09-09T11:49:46;22.30;87.90
44695;DHT22;32845;59.422;17.930;2022-09-09T11:54:33;22.20;89.60
44695;DHT22;32845;59.422;17.930;2022-09-09T12:04:16;22.50;82.10
44695;DHT22;32845;59.422;17.930;2022-09-09T12:08:53;22.50;80.00
44695;DHT22;32845;59.422;17.930;2022-09-09T12:13:26;22.20;84.00
44695;DHT22;32845;59.422;17.930;2022-09-09T12:17:58;22.00;89.10
44695;DHT22;32845;59.422;17.930;2022-09-09T12:32:27;21.40;82.30
44695;DHT22;32845;59.422;17.930;2022-09-09T12:41:53;21.00;88.60
44695;DHT22;32845;59.422;17.930;2022-09-09T12:46:40;20.80;89.30
44695;DHT22;32845;59.422;17.930;2022-09-09T12:51:24;20.70;83.90
44695;DHT22;32845;59.422;17.930;2022-09-09T12:56:17;20.50;87.50
44695;DHT22;32845;59.422;17.930;2022-09-09T13:00:53;20.30;87.40
44695;DHT22;32845;59.422;17.930;2022-09-09T13:05:33;20.00;86.40
44695;DHT22;32845;59.422;17.930;2022-09-09T13:10:04;19.60;85.90
44695;DHT22;32845;59.422;17.930;2022-09-09T13:14:36;19.40;85.50
44695;DHT22;32845;59.422;17.930;2022-09-09T13:19:15;19.40;88.60
44695;DHT22;32845;59.422;17.930;2022-09-09T13:23:52;19.40;89.10
44695;DHT22;32845;59.422;17.930;2022-09-09T13:28:26;19.40;88.90
44695;DHT22;32845;59.422;17.930;2022-09-09T13:37:39;19.30;88.40
44695;DHT22;32845;59.422;17.930;2022-09-09T13:42:33;19.20;88.00
44695;DHT22;32845;59.422;17.930;2022-09-09T13:47:19;18.90;86.40
44695;DHT22;32845;59.422;17.930;2022-09-09T13:51:51;18.70;87.70
44695;DHT22;32845;59.422;17.930;2022-09-09T13:56:23;18.50;88.20
44695;DHT22;32845;59.422;17.930;2022-09-09T14:00:54;18.20;88.70
44695;DHT22;32845;59.422;17.930;2022-09-09T14:05:25;18.10;88.90
44695;DHT22;32845;59.422;17.930;2022-09-09T14:09:56;17.90;89.20
44695;DHT22;32845;59.422;17.930;2022-09-09T14:14:27;17.80;89.10
44695;DHT22;32845;59.422;17.930;2022-09-09T14:18:57;17.80;89.60
44695;DHT22;32845;59.422;17.930;2022-09-09T14:23:29;17.70;90.00
44695;DHT22;32845;59.422;17.930;2022-09-09T14:28:00;17.50;89.80
44695;DHT22;32845;59.422;17.930;2022-09-09T14:32:32;17.30;90.00
44695;DHT22;32845;59.422;17.930;2022-09-09T14:37:03;17.20;90.10
44695;DHT22;32845;59.422;17.930;2022-09-09T14:41:39;17.10;90.40
44695;DHT22;32845;59.422;17.930;2022-09-09T14:46:12;17.20;90.40
44695;DHT22;32845;59.422;17.930;2022-09-09T14:50:43;17.10;90.60
44695;DHT22;32845;59.422;17.930;2022-09-09T14:55:29;17.10;90.70
44695;DHT22;32845;59.422;17.930;2022-09-09T15:00:00;17.10;90.70
44695;DHT22;32845;59.422;17.930;2022-09-09T15:04:30;17.00;90.70
44695;DHT22;32845;59.422;17.930;2022-09-09T15:09:01;17.00;90.80
44695;DHT22;32845;59.422;17.930;2022-09-09T15:13:33;16.80;90.80
44695;DHT22;32845;59.422;17.930;2022-09-09T15:18:04;16.70;90.90
44695;DHT22;32845;59.422;17.930;2022-09-09T15:22:35;16.60;90.90
44695;DHT22;32845;59.422;17.930;2022-09-09T15:27:07;16.50;90.90
44695;DHT22;32845;59.422;17.930;2022-09-09T15:31:37;16.40;91.00
44695;DHT22;32845;59.422;17.930;2022-09-09T15:36:25;16.30;91.10
44695;DHT22;32845;59.422;17.930;2022-09-09T15:40:56;16.10;91.40
44695;DHT22;32845;59.422;17.930;2022-09-09T15:45:33;16.00;91.40
44695;DHT22;32845;59.422;17.930;2022-09-09T15:50:04;15.90;91.50
44695;DHT22;32845;59.422;17.930;2022-09-09T15:54:36;15.70;91.70
44695;DHT22;32845;59.422;17.930;2022-09-09T15:59:09;15.60;91.80
44695;DHT22;32845;59.422;17.930;2022-09-09T16:03:41;15.50;92.10
44695;DHT22;32845;59.422;17.930;2022-09-09T16:08:12;15.40;92.30
44695;DHT22;32845;59.422;17.930;2022-09-09T16:12:43;15.30;92.40
44695;DHT22;32845;59.422;17.930;2022-09-09T16:17:15;15.30;92.50
44695;DHT22;32845;59.422;17.930;2022-09-09T16:21:56;15.20;92.60
44695;DHT22;32845;59.422;17.930;2022-09-09T16:26:28;15.20;93.00
44695;DHT22;32845;59.422;17.930;2022-09-09T16:31:04;15.20;93.20
44695;DHT22;32845;59.422;17.930;2022-09-09T16:35:36;15.10;93.20
44695;DHT22;32845;59.422;17.930;2022-09-09T16:40:09;15.00;93.30
44695;DHT22;32845;59.422;17.930;2022-09-09T16:44:39;15.00;93.40
44695;DHT22;32845;59.422;17.930;2022-09-09T16:49:13;14.90;93.80
44695;DHT22;32845;59.422;17.930;2022-09-09T16:53:45;14.80;94.10
44695;DHT22;32845;59.422;17.930;2022-09-09T16:58:16;14.80;94.30
44695;DHT22;32845;59.422;17.930;2022-09-09T17:02:47;14.70;94.30
44695;DHT22;32845;59.422;17.930;2022-09-09T17:07:18;14.70;94.60
44695;DHT22;32845;59.422;17.930;2022-09-09T17:11:50;14.60;94.40
44695;DHT22;32845;59.422;17.930;2022-09-09T17:16:24;14.50;94.60
44695;DHT22;32845;59.422;17.930;2022-09-09T17:21:06;14.40;94.60
44695;DHT22;32845;59.422;17.930;2022-09-09T17:25:37;14.30;94.90
44695;DHT22;32845;59.422;17.930;2022-09-09T17:30:08;14.10;95.10
44695;DHT22;32845;59.422;17.930;2022-09-09T17:34:44;13.90;95.30
44695;DHT22;32845;59.422;17.930;2022-09-09T17:39:16;13.80;95.90
44695;DHT22;32845;59.422;17.930;2022-09-09T17:43:47;13.60;96.00
44695;DHT22;32845;59.422;17.930;2022-09-09T17:48:18;13.40;96.50
44695;DHT22;32845;59.422;17.930;2022-09-09T17:52:49;13.20;96.90
44695;DHT22;32845;59.422;17.930;2022-09-09T17:57:19;13.10;97.20
44695;DHT22;32845;59.422;17.930;2022-09-09T18:01:52;12.90;97.50
44695;DHT22;32845;59.422;17.930;2022-09-09T18:06:25;12.80;97.90
44695;DHT22;32845;59.422;17.930;2022-09-09T18:11:00;12.70;98.20
44695;DHT22;32845;59.422;17.930;2022-09-09T18:15:36;12.50;98.60
44695;DHT22;32845;59.422;17.930;2022-09-09T18:20:07;12.50;99.10
44695;DHT22;32845;59.422;17.930;2022-09-09T18:24:47;12.40;99.30
44695;DHT22;32845;59.422;17.930;2022-09-09T18:29:21;12.20;99.90
44695;DHT22;32845;59.422;17.930;2022-09-09T18:34:01;12.20;99.90
44695;DHT22;32845;59.422;17.930;2022-09-09T18:38:33;12.10;99.90
44695;DHT22;32845;59.422;17.930;2022-09-09T18:43:10;11.90;99.90
44695;DHT22;32845;59.422;17.930;2022-09-09T18:47:42;11.80;99.90
44695;DHT22;32845;59.422;17.930;2022-09-09T18:52:14;11.60;99.90
44695;DHT22;32845;59.422;17.930;2022-09-09T18:56:45;11.50;99.90
44695;DHT22;32845;59.422;17.930;2022-09-09T19:01:16;11.40;99.90
44695;DHT22;32845;59.422;17.930;2022-09-09T19:05:47;11.30;99.90
44695;DHT22;32845;59.422;17.930;2022-09-09T19:10:17;11.20;99.90
44695;DHT22;32845;59.422;17.930;2022-09-09T19:14:49;11.20;99.90
44695;DHT22;32845;59.422;17.930;2022-09-09T19:19:23;11.10;99.90
44695;DHT22;32845;59.422;17.930;2022-09-09T19:24:01;11.00;99.90
44695;DHT22;32845;59.422;17.930;2022-09-09T19:28:35;10.90;99.90
44695;DHT22;32845;59.422;17.930;2022-09-09T19:33:12;10.80;99.90
44695;DHT22;32845;59.422;17.930;2022-09-09T19:37:42;10.70;99.90
44695;DHT22;32845;59.422;17.930;2022-09-09T19:42:13;10.60;99.90
44695;DHT22;32845;59.422;17.930;2022-09-09T19:46:44;10.50;99.90
44695;DHT22;32845;59.422;17.930;2022-09-09T19:51:18;10.40;99.90
44695;DHT22;32845;59.422;17.930;2022-09-09T19:55:49;10.30;99.90
44695;DHT22;32845;59.422;17.930;2022-09-09T20:00:20;10.20;99.90
44695;DHT22;32845;59.422;17.930;2022-09-09T20:04:51;10.10;99.90
44695;DHT22;32845;59.422;17.930;2022-09-09T20:09:22;10.00;99.90
44695;DHT22;32845;59.422;17.930;2022-09-09T20:13:55;10.00;99.90
44695;DHT22;32845;59.422;17.930;2022-09-09T20:18:30;9.90;99.90
44695;DHT22;32845;59.422;17.930;2022-09-09T20:23:01;9.80;99.90
44695;DHT22;32845;59.422;17.930;2022-09-09T20:27:32;9.70;99.90
44695;DHT22;32845;59.422;17.930;2022-09-09T20:32:03;9.60;99.90
44695;DHT22;32845;59.422;17.930;2022-09-09T20:36:35;9.60;99.90
44695;DHT22;32845;59.422;17.930;2022-09-09T20:41:06;9.50;99.90
44695;DHT22;32845;59.422;17.930;2022-09-09T20:45:40;9.40;99.90
44695;DHT22;32845;59.422;17.930;2022-09-09T20:50:13;9.40;99.90
44695;DHT22;32845;59.422;17.930;2022-09-09T20:54:44;9.30;99.90
44695;DHT22;32845;59.422;17.930;2022-09-09T20:59:24;9.30;99.90
44695;DHT22;32845;59.422;17.930;2022-09-09T21:03:55;9.20;99.90
44695;DHT22;32845;59.422;17.930;2022-09-09T21:08:26;9.20;99.90
44695;DHT22;32845;59.422;17.930;2022-09-09T21:12:57;9.10;99.90
44695;DHT22;32845;59.422;17.930;2022-09-09T21:17:30;9.00;99.90
44695;DHT22;32845;59.422;17.930;2022-09-09T21:22:01;9.00;99.90
44695;DHT22;32845;59.422;17.930;2022-09-09T21:26:32;9.00;99.90
44695;DHT22;32845;59.422;17.930;2022-09-09T21:31:04;8.90;99.90
44695;DHT22;32845;59.422;17.930;2022-09-09T21:35:37;8.90;99.90
44695;DHT22;32845;59.422;17.930;2022-09-09T21:40:09;8.80;99.90
44695;DHT22;32845;59.422;17.930;2022-09-09T21:44:44;8.80;99.90
44695;DHT22;32845;59.422;17.930;2022-09-09T21:49:15;8.80;99.90
44695;DHT22;32845;59.422;17.930;2022-09-09T21:53:46;8.80;99.90
44695;DHT22;32845;59.422;17.930;2022-09-09T21:58:16;8.70;99.90
44695;DHT22;32845;59.422;17.930;2022-09-09T22:02:50;8.60;99.90
44695;DHT22;32845;59.422;17.930;2022-09-09T22:07:21;8.50;99.90
44695;DHT22;32845;59.422;17.930;2022-09-09T22:11:51;8.50;99.90
44695;DHT22;32845;59.422;17.930;2022-09-09T22:16:23;8.50;99.90
44695;DHT22;32845;59.422;17.930;2022-09-09T22:20:54;8.40;99.90
44695;DHT22;32845;59.422;17.930;2022-09-09T22:25:25;8.40;99.90
44695;DHT22;32845;59.422;17.930;2022-09-09T22:29:56;8.40;99.90
44695;DHT22;32845;59.422;17.930;2022-09-09T22:34:26;8.30;99.90
44695;DHT22;32845;59.422;17.930;2022-09-09T22:38:58;8.30;99.90
44695;DHT22;32845;59.422;17.930;2022-09-09T22:43:29;8.20;99.90
44695;DHT22;32845;59.422;17.930;2022-09-09T22:48:01;8.20;99.90
44695;DHT22;32845;59.422;17.930;2022-09-09T22:52:31;8.20;99.90
44695;DHT22;32845;59.422;17.930;2022-09-09T22:57:02;8.20;99.90
44695;DHT22;32845;59.422;17.930;2022-09-09T23:01:33;8.10;99.90
44695;DHT22;32845;59.422;17.930;2022-09-09T23:06:04;8.10;99.90
44695;DHT22;32845;59.422;17.930;2022-09-09T23:10:39;8.10;99.90
44695;DHT22;32845;59.422;17.930;2022-09-09T23:15:12;8.10;99.90
44695;DHT22;32845;59.422;17.930;2022-09-09T23:19:43;8.00;99.90
44695;DHT22;32845;59.422;17.930;2022-09-09T23:24:19;8.00;99.90
44695;DHT22;32845;59.422;17.930;2022-09-09T23:28:51;8.00;99.90
44695;DHT22;32845;59.422;17.930;2022-09-09T23:33:22;7.90;99.90
44695;DHT22;32845;59.422;17.930;2022-09-09T23:37:53;7.90;99.90
44695;DHT22;32845;59.422;17.930;2022-09-09T23:42:23;7.90;99.90
44695;DHT22;32845;59.422;17.930;2022-09-09T23:46:55;7.90;99.90
44695;DHT22;32845;59.422;17.930;2022-09-09T23:51:27;7.90;99.90
44695;DHT22;32845;59.422;17.930;2022-09-09T23:56:00;7.80;99.90
